createdAt,value
2022-07-25T00:02:51.053Z,958.66
2022-07-25T00:08:23.003Z,958.61
2022-07-25T00:13:54.333Z,958.55
2022-07-25T00:19:25.859Z,958.49
2022-07-25T00:24:57.533Z,958.43
2022-07-25T00:30:29.340Z,958.37
2022-07-25T00:36:01.473Z,958.35
2022-07-25T00:41:33.297Z,958.29
2022-07-25T00:47:05.437Z,958.27
2022-07-25T00:52:36.921Z,958.29
2022-07-25T00:58:08.568Z,958.31
2022-07-25T03:04:20.638Z,957.72
2022-07-25T03:09:52.395Z,957.69
2022-07-25T03:15:24.248Z,957.72
2022-07-25T03:20:56.127Z,957.72
2022-07-25T03:26:28.012Z,957.74
2022-07-25T03:31:59.801Z,957.74
2022-07-25T03:37:31.561Z,957.71
2022-07-25T03:43:03.366Z,957.69
2022-07-25T03:48:35.363Z,957.67
2022-07-25T03:54:07.927Z,957.59
2022-07-25T03:59:39.497Z,957.57
2022-07-25T04:05:11.565Z,957.59
2022-07-25T04:10:43.046Z,957.59
2022-07-25T04:16:15.098Z,957.59
2022-07-25T04:21:46.803Z,957.55
2022-07-25T04:27:18.514Z,957.55
2022-07-25T04:32:50.325Z,957.53
2022-07-25T04:38:21.956Z,957.49
2022-07-25T04:43:53.864Z,957.45
2022-07-25T04:49:25.442Z,957.39
2022-07-25T04:54:57.471Z,957.37
2022-07-25T05:00:29.579Z,957.31
2022-07-25T05:06:01.399Z,957.29
2022-07-25T05:11:33.100Z,957.25
2022-07-25T05:17:04.821Z,957.23
2022-07-25T05:22:36.715Z,957.25
2022-07-25T05:28:08.436Z,957.25
2022-07-25T05:33:40.139Z,957.23
2022-07-25T05:39:11.991Z,957.23
2022-07-25T05:44:43.637Z,957.21
2022-07-25T05:50:15.562Z,957.19
2022-07-25T05:55:47.389Z,957.16
2022-07-25T06:01:19.148Z,957.14
2022-07-25T06:06:50.878Z,957.14
2022-07-25T06:12:24.252Z,957.12
2022-07-25T06:17:54.217Z,957.12
2022-07-25T06:23:27.774Z,957.10
2022-07-25T06:28:57.680Z,957.08
2022-07-25T06:34:29.101Z,957.06
2022-07-25T06:40:01.066Z,957.00
2022-07-25T06:45:32.721Z,956.98
2022-07-25T06:51:04.518Z,956.94
2022-07-25T06:53:15.874Z,956.82
2022-07-25T07:04:16.500Z,956.76
2022-07-25T07:09:47.997Z,956.74
2022-07-25T07:15:20.235Z,956.70
2022-07-25T07:20:51.804Z,956.67
2022-07-25T07:26:23.603Z,956.65
2022-07-25T07:31:57.618Z,956.61
2022-07-25T07:37:33.677Z,956.57
2022-07-25T07:43:00.895Z,956.57
2022-07-25T07:48:33.015Z,956.55
2022-07-25T07:54:04.458Z,956.45
2022-07-25T07:59:36.438Z,956.43
2022-07-25T08:10:37.300Z,956.39
2022-07-25T08:16:09.164Z,956.37
2022-07-25T08:23:59.936Z,956.23
2022-07-25T08:35:01.333Z,956.19
2022-07-25T08:40:33.178Z,956.17
2022-07-25T08:46:04.987Z,956.17
2022-07-25T08:51:36.763Z,956.16
2022-07-25T08:57:08.501Z,956.14
2022-07-25T09:02:40.458Z,956.08
2022-07-25T09:13:41.092Z,956.04
2022-07-25T09:19:13.591Z,956.00
2022-07-25T09:24:45.360Z,955.94
2022-07-25T09:30:17.145Z,955.88
2022-07-25T09:35:48.892Z,955.86
2022-07-25T09:41:20.380Z,955.84
2022-07-25T09:46:51.935Z,955.82
2022-07-25T09:52:23.485Z,955.78
2022-07-25T09:58:17.411Z,955.68
2022-07-25T10:03:49.456Z,955.66
2022-07-25T10:09:21.216Z,955.66
2022-07-25T10:14:52.682Z,955.62
2022-07-25T10:20:24.106Z,955.55
2022-07-25T10:25:55.836Z,955.53
2022-07-25T10:31:27.608Z,955.49
2022-07-25T10:36:59.148Z,955.47
2022-07-25T10:42:30.880Z,955.39
2022-07-25T10:48:02.803Z,955.33
2022-07-25T10:53:34.396Z,955.29
2022-07-25T10:59:06.364Z,955.27
2022-07-25T11:04:37.990Z,955.19
2022-07-25T11:10:09.697Z,955.15
2022-07-25T11:15:41.635Z,955.12
2022-07-25T11:21:13.348Z,955.10
2022-07-25T11:26:45.185Z,955.10
2022-07-25T11:32:17.191Z,955.04
2022-07-25T11:37:49.005Z,955.00
2022-07-25T11:43:20.522Z,954.94
2022-07-25T11:48:52.414Z,954.90
2022-07-25T11:54:24.238Z,954.84
2022-07-25T11:59:56.023Z,954.80
2022-07-25T12:05:27.721Z,954.78
2022-07-25T12:10:59.552Z,954.74
2022-07-25T12:16:31.320Z,954.70
2022-07-25T12:22:03.183Z,954.65
2022-07-25T12:27:34.967Z,954.63
2022-07-25T12:33:06.827Z,954.59
2022-07-25T12:38:38.648Z,954.53
2022-07-25T12:44:10.147Z,954.49
2022-07-25T12:49:41.814Z,954.45
2022-07-25T12:55:13.511Z,954.35
2022-07-25T13:00:45.208Z,954.33
2022-07-25T13:06:17.303Z,954.31
2022-07-25T13:11:48.896Z,954.29
2022-07-25T13:17:26.514Z,954.25
2022-07-25T13:22:52.215Z,954.19
2022-07-25T13:28:23.926Z,954.12
2022-07-25T13:33:55.813Z,954.10
2022-07-25T13:39:27.231Z,954.12
2022-07-25T13:44:58.837Z,954.12
2022-07-25T13:50:30.515Z,954.04
2022-07-25T13:56:02.008Z,953.98
2022-07-25T14:01:33.923Z,953.84
2022-07-25T14:07:05.112Z,953.76
2022-07-25T14:18:08.297Z,953.70
2022-07-25T14:23:40.120Z,953.62
2022-07-25T14:29:11.757Z,953.59
2022-07-25T14:34:43.330Z,953.51
2022-07-25T14:40:15.113Z,953.51
2022-07-25T14:45:46.800Z,953.45
2022-07-25T14:51:18.813Z,953.37
2022-07-25T14:56:50.360Z,953.33
2022-07-25T15:02:21.698Z,953.27
2022-07-25T15:07:53.637Z,953.25
2022-07-25T15:13:31.435Z,953.19
2022-07-25T15:24:29.518Z,953.10
2022-07-25T15:35:30.882Z,952.94
2022-07-25T15:41:02.435Z,952.82
2022-07-25T15:46:34.131Z,952.80
2022-07-25T15:52:05.522Z,952.76
2022-07-25T15:57:37.056Z,952.68
2022-07-25T16:03:14.360Z,952.68
2022-07-25T16:08:46.140Z,952.61
2022-07-25T16:14:17.850Z,952.53
2022-07-25T16:19:49.386Z,952.51
2022-07-25T16:25:20.961Z,952.43
2022-07-25T16:30:52.833Z,952.45
2022-07-25T16:41:56.525Z,952.37
2022-07-25T16:47:28.382Z,952.35
2022-07-25T16:52:59.873Z,952.33
2022-07-25T16:58:31.612Z,952.31
2022-07-25T17:04:03.440Z,952.25
2022-07-25T17:09:35.363Z,952.29
2022-07-25T17:15:07.499Z,952.27
2022-07-25T17:20:39.224Z,952.31
2022-07-25T17:26:10.996Z,952.33
2022-07-25T17:31:42.512Z,952.35
2022-07-25T17:37:14.299Z,952.35
2022-07-25T17:42:47.988Z,952.37
2022-07-25T17:53:49.603Z,952.43
2022-07-25T18:10:22.807Z,952.65
2022-07-25T18:15:54.918Z,952.72
2022-07-25T18:21:26.330Z,952.84
2022-07-25T18:26:58.131Z,952.94
2022-07-25T18:32:29.637Z,953.12
2022-07-25T18:49:00.703Z,953.45
2022-07-25T18:54:32.469Z,953.49
2022-07-25T19:00:04.103Z,953.49
2022-07-25T19:05:36.065Z,953.53
2022-07-25T19:11:07.349Z,953.59
2022-07-25T19:16:39.214Z,953.60
2022-07-25T19:27:40.345Z,953.62
2022-07-25T19:33:11.937Z,953.72
2022-07-25T19:38:43.924Z,953.74
2022-07-25T19:49:45.193Z,953.76
2022-07-25T19:55:17.259Z,953.82
2022-07-25T20:00:49.297Z,953.98
2022-07-25T20:14:14.781Z,954.16
2022-07-25T20:19:47.702Z,954.25
2022-07-25T20:25:19.889Z,954.45
2022-07-25T20:30:52.452Z,954.80
2022-07-25T20:36:24.487Z,954.86
2022-07-25T20:41:56.517Z,954.86
2022-07-25T20:47:28.520Z,954.82
2022-07-25T20:53:00.330Z,954.86
2022-07-25T21:04:07.048Z,955.02
2022-07-25T21:09:33.801Z,955.29
2022-07-25T21:17:27.186Z,956.14
2022-07-25T21:22:59.473Z,956.35
2022-07-25T21:28:31.212Z,956.70
2022-07-25T21:34:03.138Z,956.78
2022-07-25T21:39:35.051Z,956.78
2022-07-25T21:45:06.561Z,956.92
2022-07-25T21:50:42.172Z,957.10
2022-07-25T21:56:10.169Z,957.29
2022-07-25T22:01:42.107Z,957.47
2022-07-25T22:07:13.736Z,957.65
2022-07-25T22:12:45.978Z,957.80
2022-07-25T22:18:17.826Z,957.90
2022-07-25T22:23:49.641Z,958.10
2022-07-25T22:29:21.258Z,958.31
2022-07-25T22:34:53.027Z,958.47
2022-07-25T22:40:24.964Z,958.39
2022-07-25T22:45:57.047Z,958.37
2022-07-25T22:51:28.482Z,958.45
2022-07-25T22:57:00.691Z,958.53
2022-07-25T23:02:32.320Z,958.53
2022-07-25T23:13:33.523Z,958.78
2022-07-25T23:24:37.770Z,959.12
2022-07-25T23:30:06.874Z,959.14
2022-07-25T23:35:39.116Z,959.16
2022-07-25T23:41:10.758Z,959.16
2022-07-25T23:52:12.164Z,958.98
2022-07-25T23:57:43.773Z,958.92
